sensor_id;sensor_type;location;lat;lon;timestamp;pressure;altitude;pressure_sealevel;temperature;humidity
46782;BME280;32541;46.298;11.506;2024-02-28T00:00:15;89168.91;;;1.77;100.00
46782;BME280;32541;46.298;11.506;2024-02-28T00:02:40;89162.75;;;1.77;100.00
46782;BME280;32541;46.298;11.506;2024-02-28T00:05:06;89166.34;;;1.72;100.00
46782;BME280;32541;46.298;11.506;2024-02-28T00:07:31;89174.66;;;1.74;100.00
46782;BME280;32541;46.298;11.506;2024-02-28T00:09:57;89179.91;;;1.72;100.00
46782;BME280;32541;46.298;11.506;2024-02-28T00:12:23;89181.00;;;1.76;100.00
46782;BME280;32541;46.298;11.506;2024-02-28T00:14:50;89177.78;;;1.78;100.00
46782;BME280;32541;46.298;11.506;2024-02-28T00:17:16;89183.53;;;1.74;100.00
46782;BME280;32541;46.298;11.506;2024-02-28T00:19:42;89175.00;;;1.70;100.00
46782;BME280;32541;46.298;11.506;2024-02-28T00:22:09;89173.28;;;1.80;100.00
46782;BME280;32541;46.298;11.506;2024-02-28T00:24:34;89184.25;;;1.75;100.00
46782;BME280;32541;46.298;11.506;2024-02-28T00:27:00;89179.56;;;1.75;100.00
46782;BME280;32541;46.298;11.506;2024-02-28T00:29:26;89179.03;;;1.77;100.00
46782;BME280;32541;46.298;11.506;2024-02-28T00:31:51;89172.72;;;1.82;100.00
46782;BME280;32541;46.298;11.506;2024-02-28T00:34:17;89185.75;;;1.83;100.00
46782;BME280;32541;46.298;11.506;2024-02-28T00:36:42;89187.09;;;1.97;100.00
46782;BME280;32541;46.298;11.506;2024-02-28T00:39:07;89190.84;;;1.87;100.00
46782;BME280;32541;46.298;11.506;2024-02-28T00:41:33;89189.22;;;1.91;100.00
46782;BME280;32541;46.298;11.506;2024-02-28T00:43:58;89190.13;;;1.94;100.00
46782;BME280;32541;46.298;11.506;2024-02-28T00:46:24;89195.69;;;1.81;100.00
46782;BME280;32541;46.298;11.506;2024-02-28T00:48:49;89204.34;;;1.79;100.00
46782;BME280;32541;46.298;11.506;2024-02-28T00:51:15;89191.53;;;1.87;100.00
46782;BME280;32541;46.298;11.506;2024-02-28T00:53:40;89200.03;;;1.84;100.00
46782;BME280;32541;46.298;11.506;2024-02-28T00:56:06;89205.41;;;1.76;100.00
46782;BME280;32541;46.298;11.506;2024-02-28T00:58:32;89205.22;;;1.74;100.00
46782;BME280;32541;46.298;11.506;2024-02-28T01:00:57;89207.38;;;1.76;100.00
46782;BME280;32541;46.298;11.506;2024-02-28T01:03:23;89200.72;;;1.77;100.00
46782;BME280;32541;46.298;11.506;2024-02-28T01:05:51;89196.38;;;1.81;100.00
46782;BME280;32541;46.298;11.506;2024-02-28T01:08:17;89187.34;;;1.79;100.00
46782;BME280;32541;46.298;11.506;2024-02-28T01:10:43;89194.56;;;1.76;100.00
46782;BME280;32541;46.298;11.506;2024-02-28T01:13:08;89188.06;;;1.79;100.00
46782;BME280;32541;46.298;11.506;2024-02-28T01:15:34;89189.34;;;1.78;100.00
46782;BME280;32541;46.298;11.506;2024-02-28T01:17:59;89198.53;;;1.75;100.00
46782;BME280;32541;46.298;11.506;2024-02-28T01:20:25;89204.16;;;1.77;100.00
46782;BME280;32541;46.298;11.506;2024-02-28T01:22:50;89204.66;;;1.76;100.00
46782;BME280;32541;46.298;11.506;2024-02-28T01:25:15;89198.19;;;1.79;100.00
46782;BME280;32541;46.298;11.506;2024-02-28T01:27:41;89208.88;;;1.84;100.00
46782;BME280;32541;46.298;11.506;2024-02-28T01:30:06;89201.47;;;1.85;100.00
46782;BME280;32541;46.298;11.506;2024-02-28T01:32:32;89205.47;;;1.84;100.00
46782;BME280;32541;46.298;11.506;2024-02-28T01:34:57;89209.41;;;1.83;100.00
46782;BME280;32541;46.298;11.506;2024-02-28T01:37:23;89203.13;;;1.88;100.00
46782;BME280;32541;46.298;11.506;2024-02-28T01:39:48;89203.28;;;1.82;100.00
46782;BME280;32541;46.298;11.506;2024-02-28T01:42:14;89209.75;;;1.79;100.00
46782;BME280;32541;46.298;11.506;2024-02-28T01:44:48;89211.94;;;1.81;100.00
46782;BME280;32541;46.298;11.506;2024-02-28T01:47:17;89201.28;;;1.83;100.00
46782;BME280;32541;46.298;11.506;2024-02-28T01:49:43;89208.84;;;1.77;100.00
46782;BME280;32541;46.298;11.506;2024-02-28T01:52:11;89205.56;;;1.71;100.00
46782;BME280;32541;46.298;11.506;2024-02-28T01:54:38;89207.53;;;1.70;100.00
46782;BME280;32541;46.298;11.506;2024-02-28T01:57:04;89211.88;;;1.73;100.00
46782;BME280;32541;46.298;11.506;2024-02-28T01:59:31;89212.28;;;1.77;100.00
46782;BME280;32541;46.298;11.506;2024-02-28T02:01:57;89211.03;;;1.78;100.00
46782;BME280;32541;46.298;11.506;2024-02-28T02:04:22;89215.34;;;1.81;100.00
46782;BME280;32541;46.298;11.506;2024-02-28T02:06:48;89221.00;;;1.83;100.00
46782;BME280;32541;46.298;11.506;2024-02-28T02:09:14;89213.75;;;1.78;100.00
46782;BME280;32541;46.298;11.506;2024-02-28T02:11:40;89206.13;;;1.77;100.00
46782;BME280;32541;46.298;11.506;2024-02-28T02:14:05;89214.50;;;1.86;100.00
46782;BME280;32541;46.298;11.506;2024-02-28T02:16:30;89218.81;;;1.82;100.00
46782;BME280;32541;46.298;11.506;2024-02-28T02:18:56;89207.59;;;1.78;100.00
46782;BME280;32541;46.298;11.506;2024-02-28T02:21:35;89212.66;;;1.81;100.00
46782;BME280;32541;46.298;11.506;2024-02-28T02:24:02;89214.09;;;1.82;100.00
46782;BME280;32541;46.298;11.506;2024-02-28T02:26:28;89206.53;;;1.81;100.00
46782;BME280;32541;46.298;11.506;2024-02-28T02:28:53;89218.28;;;1.83;100.00
46782;BME280;32541;46.298;11.506;2024-02-28T02:31:19;89205.59;;;1.78;100.00
46782;BME280;32541;46.298;11.506;2024-02-28T02:33:45;89217.69;;;1.77;100.00
46782;BME280;32541;46.298;11.506;2024-02-28T02:36:10;89208.31;;;1.78;100.00
46782;BME280;32541;46.298;11.506;2024-02-28T02:38:35;89213.03;;;1.85;100.00
46782;BME280;32541;46.298;11.506;2024-02-28T02:41:01;89218.47;;;1.85;100.00
46782;BME280;32541;46.298;11.506;2024-02-28T02:43:26;89221.19;;;1.85;100.00
46782;BME280;32541;46.298;11.506;2024-02-28T02:45:52;89228.56;;;1.85;100.00
46782;BME280;32541;46.298;11.506;2024-02-28T02:48:17;89222.78;;;1.81;100.00
46782;BME280;32541;46.298;11.506;2024-02-28T02:50:42;89218.28;;;1.83;100.00
46782;BME280;32541;46.298;11.506;2024-02-28T02:53:10;89212.88;;;1.91;100.00
46782;BME280;32541;46.298;11.506;2024-02-28T02:55:35;89225.34;;;1.86;100.00
46782;BME280;32541;46.298;11.506;2024-02-28T02:58:01;89214.50;;;1.86;100.00
46782;BME280;32541;46.298;11.506;2024-02-28T03:00:27;89218.06;;;1.81;100.00
46782;BME280;32541;46.298;11.506;2024-02-28T03:02:53;89227.66;;;1.82;100.00
46782;BME280;32541;46.298;11.506;2024-02-28T03:05:18;89226.03;;;1.79;100.00
46782;BME280;32541;46.298;11.506;2024-02-28T03:07:44;89232.72;;;1.78;100.00
46782;BME280;32541;46.298;11.506;2024-02-28T03:10:09;89229.06;;;1.76;100.00
46782;BME280;32541;46.298;11.506;2024-02-28T03:12:35;89241.38;;;1.77;100.00
46782;BME280;32541;46.298;11.506;2024-02-28T03:15:01;89232.91;;;1.80;100.00
46782;BME280;32541;46.298;11.506;2024-02-28T03:17:28;89235.63;;;1.80;100.00
46782;BME280;32541;46.298;11.506;2024-02-28T03:19:53;89238.31;;;1.80;100.00
46782;BME280;32541;46.298;11.506;2024-02-28T03:22:19;89240.31;;;1.80;100.00
46782;BME280;32541;46.298;11.506;2024-02-28T03:24:44;89243.75;;;1.80;100.00
46782;BME280;32541;46.298;11.506;2024-02-28T03:27:09;89241.22;;;1.82;100.00
46782;BME280;32541;46.298;11.506;2024-02-28T03:29:35;89241.03;;;1.80;100.00
46782;BME280;32541;46.298;11.506;2024-02-28T03:32:00;89243.56;;;1.78;100.00
46782;BME280;32541;46.298;11.506;2024-02-28T03:34:25;89240.84;;;1.78;100.00
46782;BME280;32541;46.298;11.506;2024-02-28T03:36:51;89243.94;;;1.82;100.00
46782;BME280;32541;46.298;11.506;2024-02-28T03:39:16;89245.72;;;1.80;100.00
46782;BME280;32541;46.298;11.506;2024-02-28T03:41:42;89246.34;;;1.93;100.00
46782;BME280;32541;46.298;11.506;2024-02-28T03:44:07;89250.41;;;2.07;100.00
46782;BME280;32541;46.298;11.506;2024-02-28T03:46:33;89247.63;;;1.92;100.00
46782;BME280;32541;46.298;11.506;2024-02-28T03:48:58;89252.47;;;1.86;100.00
46782;BME280;32541;46.298;11.506;2024-02-28T03:51:23;89246.31;;;1.86;100.00
46782;BME280;32541;46.298;11.506;2024-02-28T03:53:49;89250.69;;;1.96;100.00
46782;BME280;32541;46.298;11.506;2024-02-28T03:56:26;89243.78;;;1.88;100.00
46782;BME280;32541;46.298;11.506;2024-02-28T03:58:53;89244.50;;;1.88;100.00
46782;BME280;32541;46.298;11.506;2024-02-28T04:01:19;89249.75;;;1.86;100.00
46782;BME280;32541;46.298;11.506;2024-02-28T04:03:44;89248.97;;;1.78;100.00
46782;BME280;32541;46.298;11.506;2024-02-28T04:06:13;89250.22;;;1.77;100.00
46782;BME280;32541;46.298;11.506;2024-02-28T04:08:40;89239.38;;;1.77;100.00
46782;BME280;32541;46.298;11.506;2024-02-28T04:11:06;89241.19;;;1.75;100.00
46782;BME280;32541;46.298;11.506;2024-02-28T04:13:31;89243.56;;;1.78;100.00
46782;BME280;32541;46.298;11.506;2024-02-28T04:15:56;89240.44;;;1.74;100.00
46782;BME280;32541;46.298;11.506;2024-02-28T04:18:22;89244.94;;;1.72;100.00
46782;BME280;32541;46.298;11.506;2024-02-28T04:20:47;89247.66;;;1.72;100.00
46782;BME280;32541;46.298;11.506;2024-02-28T04:23:13;89247.66;;;1.72;100.00
46782;BME280;32541;46.298;11.506;2024-02-28T04:25:38;89243.34;;;1.76;100.00
46782;BME280;32541;46.298;11.506;2024-02-28T04:28:05;89256.56;;;1.80;100.00
46782;BME280;32541;46.298;11.506;2024-02-28T04:30:31;89249.91;;;1.81;100.00
46782;BME280;32541;46.298;11.506;2024-02-28T04:32:56;89257.09;;;1.78;100.00
46782;BME280;32541;46.298;11.506;2024-02-28T04:35:22;89254.41;;;1.78;100.00
46782;BME280;32541;46.298;11.506;2024-02-28T04:37:47;89250.59;;;1.81;100.00
46782;BME280;32541;46.298;11.506;2024-02-28T04:40:13;89261.03;;;1.98;100.00
46782;BME280;32541;46.298;11.506;2024-02-28T04:42:39;89261.50;;;1.89;100.00
46782;BME280;32541;46.298;11.506;2024-02-28T04:45:05;89265.78;;;1.84;100.00
46782;BME280;32541;46.298;11.506;2024-02-28T04:47:30;89270.13;;;1.80;100.00
46782;BME280;32541;46.298;11.506;2024-02-28T04:49:56;89271.03;;;1.82;100.00
46782;BME280;32541;46.298;11.506;2024-02-28T04:52:22;89273.00;;;1.82;100.00
46782;BME280;32541;46.298;11.506;2024-02-28T04:54:47;89274.81;;;1.79;100.00
46782;BME280;32541;46.298;11.506;2024-02-28T04:57:12;89284.25;;;1.86;100.00
46782;BME280;32541;46.298;11.506;2024-02-28T04:59:38;89275.56;;;1.87;100.00
46782;BME280;32541;46.298;11.506;2024-02-28T05:02:03;89280.63;;;1.83;100.00
46782;BME280;32541;46.298;11.506;2024-02-28T05:04:28;89281.88;;;1.82;100.00
46782;BME280;32541;46.298;11.506;2024-02-28T05:06:54;89275.94;;;1.84;100.00
46782;BME280;32541;46.298;11.506;2024-02-28T05:09:19;89283.13;;;1.81;100.00
46782;BME280;32541;46.298;11.506;2024-02-28T05:11:45;89278.44;;;1.82;100.00
46782;BME280;32541;46.298;11.506;2024-02-28T05:14:10;89283.13;;;1.81;100.00
46782;BME280;32541;46.298;11.506;2024-02-28T05:16:36;89277.00;;;1.81;100.00
46782;BME280;32541;46.298;11.506;2024-02-28T05:19:01;89280.63;;;1.83;100.00
46782;BME280;32541;46.298;11.506;2024-02-28T05:21:26;89277.91;;;1.83;100.00
46782;BME280;32541;46.298;11.506;2024-02-28T05:23:53;89277.03;;;1.88;100.00
46782;BME280;32541;46.298;11.506;2024-02-28T05:26:18;89279.75;;;1.88;100.00
46782;BME280;32541;46.298;11.506;2024-02-28T05:28:43;89288.44;;;1.87;100.00
46782;BME280;32541;46.298;11.506;2024-02-28T05:31:25;89289.34;;;1.89;100.00
46782;BME280;32541;46.298;11.506;2024-02-28T05:33:52;89306.28;;;1.82;100.00
46782;BME280;32541;46.298;11.506;2024-02-28T05:36:19;89301.41;;;1.81;100.00
46782;BME280;32541;46.298;11.506;2024-02-28T05:38:44;89306.47;;;1.84;100.00
46782;BME280;32541;46.298;11.506;2024-02-28T05:41:10;89311.69;;;1.82;100.00
46782;BME280;32541;46.298;11.506;2024-02-28T05:43:37;89314.94;;;1.81;100.00
46782;BME280;32541;46.298;11.506;2024-02-28T05:46:03;89318.56;;;1.83;100.00
46782;BME280;32541;46.298;11.506;2024-02-28T05:48:28;89320.38;;;1.81;100.00
46782;BME280;32541;46.298;11.506;2024-02-28T05:50:54;89324.66;;;1.76;100.00
46782;BME280;32541;46.298;11.506;2024-02-28T05:53:19;89336.63;;;1.81;100.00
46782;BME280;32541;46.298;11.506;2024-02-28T05:55:45;89335.16;;;1.80;100.00
46782;BME280;32541;46.298;11.506;2024-02-28T05:58:10;89345.88;;;1.85;100.00
46782;BME280;32541;46.298;11.506;2024-02-28T06:00:36;89349.31;;;1.86;100.00
46782;BME280;32541;46.298;11.506;2024-02-28T06:03:02;89355.06;;;1.82;100.00
46782;BME280;32541;46.298;11.506;2024-02-28T06:05:28;89360.22;;;1.93;100.00
46782;BME280;32541;46.298;11.506;2024-02-28T06:07:53;89359.84;;;1.89;100.00
46782;BME280;32541;46.298;11.506;2024-02-28T06:10:19;89364.84;;;1.85;100.00
46782;BME280;32541;46.298;11.506;2024-02-28T06:12:46;89366.63;;;1.83;100.00
46782;BME280;32541;46.298;11.506;2024-02-28T06:15:12;89370.09;;;1.83;100.00
46782;BME280;32541;46.298;11.506;2024-02-28T06:17:37;89379.66;;;1.84;100.00
46782;BME280;32541;46.298;11.506;2024-02-28T06:20:02;89378.41;;;1.85;100.00
46782;BME280;32541;46.298;11.506;2024-02-28T06:22:28;89377.34;;;1.88;100.00
46782;BME280;32541;46.298;11.506;2024-02-28T06:24:53;89382.31;;;1.97;100.00
46782;BME280;32541;46.298;11.506;2024-02-28T06:27:19;89383.19;;;2.20;100.00
46782;BME280;32541;46.298;11.506;2024-02-28T06:29:44;89387.88;;;2.20;100.00
46782;BME280;32541;46.298;11.506;2024-02-28T06:32:09;89401.47;;;2.20;100.00
46782;BME280;32541;46.298;11.506;2024-02-28T06:34:35;89402.50;;;2.17;100.00
46782;BME280;32541;46.298;11.506;2024-02-28T06:37:00;89407.03;;;2.14;100.00
46782;BME280;32541;46.298;11.506;2024-02-28T06:39:25;89409.13;;;2.08;100.00
46782;BME280;32541;46.298;11.506;2024-02-28T06:41:51;89411.63;;;1.99;100.00
46782;BME280;32541;46.298;11.506;2024-02-28T06:44:18;89416.94;;;1.91;100.00
46782;BME280;32541;46.298;11.506;2024-02-28T06:46:43;89420.72;;;1.88;100.00
46782;BME280;32541;46.298;11.506;2024-02-28T06:49:08;89424.16;;;1.89;100.00
46782;BME280;32541;46.298;11.506;2024-02-28T06:51:34;89435.53;;;1.87;100.00
46782;BME280;32541;46.298;11.506;2024-02-28T06:53:59;89441.91;;;1.90;100.00
46782;BME280;32541;46.298;11.506;2024-02-28T06:56:24;89442.81;;;1.92;100.00
46782;BME280;32541;46.298;11.506;2024-02-28T06:58:50;89455.31;;;1.95;100.00
46782;BME280;32541;46.298;11.506;2024-02-28T07:01:15;89451.88;;;1.95;100.00
46782;BME280;32541;46.298;11.506;2024-02-28T07:03:40;89460.41;;;1.99;100.00
46782;BME280;32541;46.298;11.506;2024-02-28T07:06:06;89469.06;;;1.97;100.00
46782;BME280;32541;46.298;11.506;2024-02-28T07:08:32;89471.59;;;1.95;100.00
46782;BME280;32541;46.298;11.506;2024-02-28T07:10:58;89480.50;;;2.03;100.00
46782;BME280;32541;46.298;11.506;2024-02-28T07:13:23;89483.03;;;2.01;100.00
46782;BME280;32541;46.298;11.506;2024-02-28T07:15:48;89488.25;;;1.99;100.00
46782;BME280;32541;46.298;11.506;2024-02-28T07:18:14;89489.69;;;2.00;100.00
46782;BME280;32541;46.298;11.506;2024-02-28T07:20:40;89486.47;;;2.02;100.00
46782;BME280;32541;46.298;11.506;2024-02-28T07:23:05;89501.78;;;1.99;100.00
46782;BME280;32541;46.298;11.506;2024-02-28T07:25:31;89501.47;;;2.03;100.00
46782;BME280;32541;46.298;11.506;2024-02-28T07:27:58;89508.03;;;2.07;100.00
46782;BME280;32541;46.298;11.506;2024-02-28T07:30:28;89507.63;;;2.03;100.00
46782;BME280;32541;46.298;11.506;2024-02-28T07:32:53;89500.97;;;2.04;100.00
46782;BME280;32541;46.298;11.506;2024-02-28T07:35:19;89504.06;;;2.08;100.00
46782;BME280;32541;46.298;11.506;2024-02-28T07:37:46;89501.88;;;2.07;100.00
46782;BME280;32541;46.298;11.506;2024-02-28T07:40:12;89500.28;;;2.11;100.00
46782;BME280;32541;46.298;11.506;2024-02-28T07:42:37;89503.09;;;2.19;100.00
46782;BME280;32541;46.298;11.506;2024-02-28T07:45:03;89504.00;;;2.21;100.00
46782;BME280;32541;46.298;11.506;2024-02-28T07:47:29;89505.13;;;2.26;100.00
46782;BME280;32541;46.298;11.506;2024-02-28T07:49:54;89504.75;;;2.22;100.00
46782;BME280;32541;46.298;11.506;2024-02-28T07:52:20;89503.16;;;2.27;100.00
46782;BME280;32541;46.298;11.506;2024-02-28T07:54:45;89508.97;;;2.31;100.00
46782;BME280;32541;46.298;11.506;2024-02-28T07:57:11;89501.22;;;2.35;100.00
46782;BME280;32541;46.298;11.506;2024-02-28T07:59:41;89506.28;;;2.31;100.00
46782;BME280;32541;46.298;11.506;2024-02-28T08:02:07;89505.03;;;2.32;100.00
46782;BME280;32541;46.298;11.506;2024-02-28T08:04:32;89511.22;;;2.40;100.00
46782;BME280;32541;46.298;11.506;2024-02-28T08:06:59;89519.09;;;2.30;100.00
46782;BME280;32541;46.298;11.506;2024-02-28T08:09:25;89524.81;;;2.40;100.00
46782;BME280;32541;46.298;11.506;2024-02-28T08:11:50;89514.69;;;2.40;100.00
46782;BME280;32541;46.298;11.506;2024-02-28T08:14:16;89520.81;;;2.41;100.00
46782;BME280;32541;46.298;11.506;2024-02-28T08:16:41;89516.34;;;2.43;100.00
46782;BME280;32541;46.298;11.506;2024-02-28T08:19:07;89523.41;;;2.46;100.00
46782;BME280;32541;46.298;11.506;2024-02-28T08:21:32;89522.09;;;2.60;100.00
46782;BME280;32541;46.298;11.506;2024-02-28T08:23:57;89519.75;;;2.64;100.00
46782;BME280;32541;46.298;11.506;2024-02-28T08:26:23;89513.81;;;2.66;100.00
46782;BME280;32541;46.298;11.506;2024-02-28T08:28:49;89518.91;;;2.69;100.00
46782;BME280;32541;46.298;11.506;2024-02-28T08:31:16;89527.31;;;2.79;100.00
46782;BME280;32541;46.298;11.506;2024-02-28T08:33:41;89514.66;;;2.82;100.00
46782;BME280;32541;46.298;11.506;2024-02-28T08:36:06;89525.16;;;2.85;100.00
46782;BME280;32541;46.298;11.506;2024-02-28T08:38:32;89530.31;;;2.96;100.00
46782;BME280;32541;46.298;11.506;2024-02-28T08:40:58;89534.25;;;2.88;100.00
46782;BME280;32541;46.298;11.506;2024-02-28T08:43:23;89538.03;;;2.85;100.00
46782;BME280;32541;46.298;11.506;2024-02-28T08:45:48;89542.84;;;2.99;100.00
46782;BME280;32541;46.298;11.506;2024-02-28T08:48:16;89543.44;;;3.05;100.00
46782;BME280;32541;46.298;11.506;2024-02-28T08:50:42;89548.91;;;3.13;100.00
46782;BME280;32541;46.298;11.506;2024-02-28T08:53:07;89549.97;;;3.10;100.00
46782;BME280;32541;46.298;11.506;2024-02-28T08:55:33;89547.06;;;3.08;100.00
46782;BME280;32541;46.298;11.506;2024-02-28T08:57:58;89552.75;;;3.17;100.00
46782;BME280;32541;46.298;11.506;2024-02-28T09:00:24;89558.28;;;3.12;100.00
46782;BME280;32541;46.298;11.506;2024-02-28T09:02:49;89558.66;;;3.08;100.00
46782;BME280;32541;46.298;11.506;2024-02-28T09:05:14;89563.03;;;3.11;100.00
46782;BME280;32541;46.298;11.506;2024-02-28T09:07:40;89561.00;;;3.12;100.00
46782;BME280;32541;46.298;11.506;2024-02-28T09:10:06;89553.06;;;3.14;100.00
46782;BME280;32541;46.298;11.506;2024-02-28T09:12:31;89561.28;;;3.21;100.00
46782;BME280;32541;46.298;11.506;2024-02-28T09:14:57;89565.00;;;3.39;100.00
46782;BME280;32541;46.298;11.506;2024-02-28T09:17:24;89574.84;;;3.21;100.00
46782;BME280;32541;46.298;11.506;2024-02-28T09:19:49;89569.66;;;3.31;100.00
46782;BME280;32541;46.298;11.506;2024-02-28T09:22:15;89572.34;;;3.23;100.00
46782;BME280;32541;46.298;11.506;2024-02-28T09:24:42;89576.47;;;3.17;100.00
46782;BME280;32541;46.298;11.506;2024-02-28T09:27:07;89572.69;;;3.20;100.00
46782;BME280;32541;46.298;11.506;2024-02-28T09:29:33;89579.22;;;3.24;100.00
46782;BME280;32541;46.298;11.506;2024-02-28T09:31:58;89578.69;;;3.26;100.00
46782;BME280;32541;46.298;11.506;2024-02-28T09:34:24;89583.84;;;3.37;100.00
46782;BME280;32541;46.298;11.506;2024-02-28T09:36:49;89578.34;;;3.58;100.00
46782;BME280;32541;46.298;11.506;2024-02-28T09:39:15;89588.66;;;3.52;100.00
46782;BME280;32541;46.298;11.506;2024-02-28T09:41:43;89586.41;;;3.43;100.00
46782;BME280;32541;46.298;11.506;2024-02-28T09:44:10;89587.47;;;3.40;100.00
46782;BME280;32541;46.298;11.506;2024-02-28T09:46:36;89582.78;;;3.40;100.00
46782;BME280;32541;46.298;11.506;2024-02-28T09:49:04;89586.81;;;3.47;100.00
46782;BME280;32541;46.298;11.506;2024-02-28T09:51:33;89592.91;;;3.40;100.00
46782;BME280;32541;46.298;11.506;2024-02-28T09:54:00;89584.25;;;3.41;100.00
46782;BME280;32541;46.298;11.506;2024-02-28T09:56:27;89572.66;;;3.48;100.00
46782;BME280;32541;46.298;11.506;2024-02-28T09:58:54;89576.38;;;3.58;100.00
46782;BME280;32541;46.298;11.506;2024-02-28T10:01:21;89578.97;;;3.71;100.00
46782;BME280;32541;46.298;11.506;2024-02-28T10:03:47;89579.75;;;3.87;100.00
46782;BME280;32541;46.298;11.506;2024-02-28T10:06:14;89586.41;;;3.71;100.00
46782;BME280;32541;46.298;11.506;2024-02-28T10:08:40;89588.25;;;3.48;100.00
46782;BME280;32541;46.298;11.506;2024-02-28T10:11:06;89581.66;;;3.64;100.00
46782;BME280;32541;46.298;11.506;2024-02-28T10:13:31;89586.31;;;3.91;100.00
46782;BME280;32541;46.298;11.506;2024-02-28T10:15:56;89580.06;;;4.19;100.00
46782;BME280;32541;46.298;11.506;2024-02-28T10:18:22;89584.66;;;4.39;100.00
46782;BME280;32541;46.298;11.506;2024-02-28T10:20:47;89586.75;;;4.69;100.00
46782;BME280;32541;46.298;11.506;2024-02-28T10:23:13;89580.97;;;4.88;100.00
46782;BME280;32541;46.298;11.506;2024-02-28T10:25:48;89574.28;;;5.04;100.00
46782;BME280;32541;46.298;11.506;2024-02-28T10:28:14;89574.28;;;5.19;100.00
46782;BME280;32541;46.298;11.506;2024-02-28T10:30:43;89575.34;;;5.39;100.00
46782;BME280;32541;46.298;11.506;2024-02-28T10:33:13;89580.78;;;5.61;100.00
46782;BME280;32541;46.298;11.506;2024-02-28T10:35:42;89573.84;;;5.91;100.00
46782;BME280;32541;46.298;11.506;2024-02-28T10:38:12;89576.94;;;6.42;100.00
46782;BME280;32541;46.298;11.506;2024-02-28T10:40:41;89564.69;;;6.83;100.00
46782;BME280;32541;46.298;11.506;2024-02-28T10:43:10;89563.56;;;6.86;100.00
46782;BME280;32541;46.298;11.506;2024-02-28T10:45:36;89572.03;;;6.73;100.00
46782;BME280;32541;46.298;11.506;2024-02-28T10:48:06;89574.97;;;6.35;100.00
46782;BME280;32541;46.298;11.506;2024-02-28T10:50:32;89575.44;;;6.49;100.00
46782;BME280;32541;46.298;11.506;2024-02-28T10:53:00;89570.72;;;6.42;100.00
46782;BME280;32541;46.298;11.506;2024-02-28T10:55:32;89574.44;;;6.29;100.00
46782;BME280;32541;46.298;11.506;2024-02-28T10:58:02;89572.75;;;5.94;100.00
46782;BME280;32541;46.298;11.506;2024-02-28T11:00:29;89577.69;;;5.88;100.00
46782;BME280;32541;46.298;11.506;2024-02-28T11:02:56;89573.09;;;5.83;100.00
46782;BME280;32541;46.298;11.506;2024-02-28T11:05:22;89568.41;;;5.76;100.00
46782;BME280;32541;46.298;11.506;2024-02-28T11:07:51;89568.03;;;5.72;100.00
46782;BME280;32541;46.298;11.506;2024-02-28T11:10:17;89568.75;;;5.87;100.00
46782;BME280;32541;46.298;11.506;2024-02-28T11:12:43;89574.03;;;6.33;100.00
46782;BME280;32541;46.298;11.506;2024-02-28T11:15:16;89567.38;;;6.58;100.00
46782;BME280;32541;46.298;11.506;2024-02-28T11:17:42;89556.53;;;6.76;100.00
46782;BME280;32541;46.298;11.506;2024-02-28T11:20:12;89564.28;;;6.94;100.00
46782;BME280;32541;46.298;11.506;2024-02-28T11:22:39;89563.59;;;7.11;100.00
46782;BME280;32541;46.298;11.506;2024-02-28T11:25:05;89558.69;;;7.34;100.00
46782;BME280;32541;46.298;11.506;2024-02-28T11:27:31;89548.56;;;7.44;100.00
46782;BME280;32541;46.298;11.506;2024-02-28T11:29:59;89556.06;;;7.19;100.00
46782;BME280;32541;46.298;11.506;2024-02-28T11:32:26;89557.50;;;7.45;100.00
46782;BME280;32541;46.298;11.506;2024-02-28T11:34:52;89555.69;;;7.64;100.00
46782;BME280;32541;46.298;11.506;2024-02-28T11:37:18;89547.94;;;7.36;100.00
46782;BME280;32541;46.298;11.506;2024-02-28T11:39:49;89552.41;;;7.24;100.00
46782;BME280;32541;46.298;11.506;2024-02-28T11:42:15;89548.31;;;7.33;100.00
46782;BME280;32541;46.298;11.506;2024-02-28T11:44:41;89548.91;;;7.48;100.00
46782;BME280;32541;46.298;11.506;2024-02-28T11:47:10;89546.66;;;7.54;100.00
46782;BME280;32541;46.298;11.506;2024-02-28T11:49:38;89541.22;;;7.71;100.00
46782;BME280;32541;46.298;11.506;2024-02-28T11:52:04;89542.91;;;7.67;100.00
46782;BME280;32541;46.298;11.506;2024-02-28T11:54:30;89540.34;;;7.69;100.00
46782;BME280;32541;46.298;11.506;2024-02-28T11:56:55;89547.34;;;7.79;100.00
46782;BME280;32541;46.298;11.506;2024-02-28T11:59:21;89542.34;;;7.86;100.00
46782;BME280;32541;46.298;11.506;2024-02-28T12:01:46;89539.47;;;7.83;100.00
46782;BME280;32541;46.298;11.506;2024-02-28T12:04:12;89545.56;;;7.92;100.00
46782;BME280;32541;46.298;11.506;2024-02-28T12:06:38;89541.13;;;7.96;100.00
46782;BME280;32541;46.298;11.506;2024-02-28T12:09:05;89538.09;;;8.09;100.00
46782;BME280;32541;46.298;11.506;2024-02-28T12:11:34;89530.50;;;8.17;100.00
46782;BME280;32541;46.298;11.506;2024-02-28T12:14:08;89530.50;;;8.34;100.00
46782;BME280;32541;46.298;11.506;2024-02-28T12:16:37;89525.22;;;8.36;100.00
46782;BME280;32541;46.298;11.506;2024-02-28T12:19:09;89524.06;;;8.40;100.00
46782;BME280;32541;46.298;11.506;2024-02-28T12:21:36;89515.59;;;8.45;100.00
46782;BME280;32541;46.298;11.506;2024-02-28T12:24:07;89514.63;;;8.50;100.00
46782;BME280;32541;46.298;11.506;2024-02-28T12:26:34;89508.31;;;8.57;100.00
46782;BME280;32541;46.298;11.506;2024-02-28T12:28:59;89506.78;;;8.64;100.00
46782;BME280;32541;46.298;11.506;2024-02-28T12:31:27;89511.53;;;8.63;100.00
46782;BME280;32541;46.298;11.506;2024-02-28T12:33:52;89502.09;;;8.83;100.00
46782;BME280;32541;46.298;11.506;2024-02-28T12:36:18;89505.63;;;8.93;99.09
46782;BME280;32541;46.298;11.506;2024-02-28T12:38:43;89504.63;;;8.99;98.41
46782;BME280;32541;46.298;11.506;2024-02-28T12:41:09;89497.88;;;9.09;95.15
46782;BME280;32541;46.298;11.506;2024-02-28T12:43:34;89492.75;;;8.86;94.12